sensor_id;sensor_type;location;lat;lon;timestamp;temperature;humidity
47354;DHT22;50657;48.830;2.282;2023-02-22T00:00:33;22.20;44.00
47354;DHT22;50657;48.830;2.282;2023-02-22T00:03:10;22.20;44.00
47354;DHT22;50657;48.830;2.282;2023-02-22T00:05:37;22.20;44.00
47354;DHT22;50657;48.830;2.282;2023-02-22T00:08:07;22.20;44.00
47354;DHT22;50657;48.830;2.282;2023-02-22T00:10:35;22.20;44.10
47354;DHT22;50657;48.830;2.282;2023-02-22T00:13:06;22.10;44.00
47354;DHT22;50657;48.830;2.282;2023-02-22T00:15:33;22.20;44.10
47354;DHT22;50657;48.830;2.282;2023-02-22T00:18:02;22.10;44.40
47354;DHT22;50657;48.830;2.282;2023-02-22T00:20:29;22.10;44.10
47354;DHT22;50657;48.830;2.282;2023-02-22T00:22:56;22.10;44.30
47354;DHT22;50657;48.830;2.282;2023-02-22T00:25:27;22.10;44.40
47354;DHT22;50657;48.830;2.282;2023-02-22T00:27:54;22.10;44.50
47354;DHT22;50657;48.830;2.282;2023-02-22T00:30:23;22.10;44.50
47354;DHT22;50657;48.830;2.282;2023-02-22T00:32:53;22.10;44.50
47354;DHT22;50657;48.830;2.282;2023-02-22T00:35:23;22.10;44.60
47354;DHT22;50657;48.830;2.282;2023-02-22T00:37:53;22.10;44.60
47354;DHT22;50657;48.830;2.282;2023-02-22T00:40:22;22.10;44.50
47354;DHT22;50657;48.830;2.282;2023-02-22T00:42:50;22.10;44.60
47354;DHT22;50657;48.830;2.282;2023-02-22T00:45:19;22.10;44.60
47354;DHT22;50657;48.830;2.282;2023-02-22T00:47:47;22.10;44.80
47354;DHT22;50657;48.830;2.282;2023-02-22T00:50:14;22.10;44.70
47354;DHT22;50657;48.830;2.282;2023-02-22T00:52:41;22.10;44.70
47354;DHT22;50657;48.830;2.282;2023-02-22T00:55:13;22.10;44.60
47354;DHT22;50657;48.830;2.282;2023-02-22T00:57:41;22.10;44.70
47354;DHT22;50657;48.830;2.282;2023-02-22T01:00:16;22.10;44.80
47354;DHT22;50657;48.830;2.282;2023-02-22T01:02:43;22.10;44.80
47354;DHT22;50657;48.830;2.282;2023-02-22T01:05:13;22.10;44.80
47354;DHT22;50657;48.830;2.282;2023-02-22T01:07:41;22.10;44.80
47354;DHT22;50657;48.830;2.282;2023-02-22T01:10:09;22.10;44.80
47354;DHT22;50657;48.830;2.282;2023-02-22T01:12:37;22.10;44.90
47354;DHT22;50657;48.830;2.282;2023-02-22T01:15:07;22.10;44.90
47354;DHT22;50657;48.830;2.282;2023-02-22T01:17:38;22.10;44.90
47354;DHT22;50657;48.830;2.282;2023-02-22T01:20:08;22.10;44.90
47354;DHT22;50657;48.830;2.282;2023-02-22T01:22:37;22.10;44.90
47354;DHT22;50657;48.830;2.282;2023-02-22T01:25:05;22.10;44.70
47354;DHT22;50657;48.830;2.282;2023-02-22T01:27:33;22.10;44.80
47354;DHT22;50657;48.830;2.282;2023-02-22T01:30:00;22.10;44.80
47354;DHT22;50657;48.830;2.282;2023-02-22T01:32:34;22.10;44.80
47354;DHT22;50657;48.830;2.282;2023-02-22T01:35:04;22.10;44.80
47354;DHT22;50657;48.830;2.282;2023-02-22T01:37:33;22.10;44.80
47354;DHT22;50657;48.830;2.282;2023-02-22T01:40:00;22.10;45.20
47354;DHT22;50657;48.830;2.282;2023-02-22T01:42:27;22.10;44.70
47354;DHT22;50657;48.830;2.282;2023-02-22T01:48:02;22.10;44.70
47354;DHT22;50657;48.830;2.282;2023-02-22T01:50:34;22.00;44.80
47354;DHT22;50657;48.830;2.282;2023-02-22T01:53:04;22.00;44.80
47354;DHT22;50657;48.830;2.282;2023-02-22T01:55:32;22.00;44.80
47354;DHT22;50657;48.830;2.282;2023-02-22T01:58:01;22.00;44.90
47354;DHT22;50657;48.830;2.282;2023-02-22T02:00:28;22.00;44.80
47354;DHT22;50657;48.830;2.282;2023-02-22T02:03:09;22.00;44.80
47354;DHT22;50657;48.830;2.282;2023-02-22T02:05:38;22.00;44.80
47354;DHT22;50657;48.830;2.282;2023-02-22T02:08:15;22.00;44.80
47354;DHT22;50657;48.830;2.282;2023-02-22T02:10:43;22.00;44.80
47354;DHT22;50657;48.830;2.282;2023-02-22T02:13:10;22.00;44.80
47354;DHT22;50657;48.830;2.282;2023-02-22T02:15:38;22.00;44.70
47354;DHT22;50657;48.830;2.282;2023-02-22T02:18:08;22.00;44.70
47354;DHT22;50657;48.830;2.282;2023-02-22T02:20:44;22.00;44.70
47354;DHT22;50657;48.830;2.282;2023-02-22T02:26:24;22.00;44.60
47354;DHT22;50657;48.830;2.282;2023-02-22T02:32:30;22.00;44.70
47354;DHT22;50657;48.830;2.282;2023-02-22T02:35:08;22.00;44.70
47354;DHT22;50657;48.830;2.282;2023-02-22T02:37:46;21.90;44.70
47354;DHT22;50657;48.830;2.282;2023-02-22T02:40:19;21.90;44.70
47354;DHT22;50657;48.830;2.282;2023-02-22T02:42:54;22.00;44.80
47354;DHT22;50657;48.830;2.282;2023-02-22T02:45:28;21.90;44.80
47354;DHT22;50657;48.830;2.282;2023-02-22T02:48:01;21.90;44.80
47354;DHT22;50657;48.830;2.282;2023-02-22T02:50:32;21.90;44.70
47354;DHT22;50657;48.830;2.282;2023-02-22T02:53:04;21.90;44.70
47354;DHT22;50657;48.830;2.282;2023-02-22T02:55:34;21.90;44.70
47354;DHT22;50657;48.830;2.282;2023-02-22T02:58:02;21.90;44.80
47354;DHT22;50657;48.830;2.282;2023-02-22T03:00:33;21.90;44.80
47354;DHT22;50657;48.830;2.282;2023-02-22T03:03:22;21.90;44.70
47354;DHT22;50657;48.830;2.282;2023-02-22T03:06:15;21.90;44.70
47354;DHT22;50657;48.830;2.282;2023-02-22T03:08:52;21.90;44.70
47354;DHT22;50657;48.830;2.282;2023-02-22T03:11:27;21.90;44.70
47354;DHT22;50657;48.830;2.282;2023-02-22T03:14:04;21.90;44.70
47354;DHT22;50657;48.830;2.282;2023-02-22T03:16:42;21.80;44.70
47354;DHT22;50657;48.830;2.282;2023-02-22T03:19:19;21.90;44.80
47354;DHT22;50657;48.830;2.282;2023-02-22T03:21:54;21.90;44.80
47354;DHT22;50657;48.830;2.282;2023-02-22T03:24:27;21.90;44.80
47354;DHT22;50657;48.830;2.282;2023-02-22T03:26:59;21.90;44.80
47354;DHT22;50657;48.830;2.282;2023-02-22T03:29:32;21.90;44.90
47354;DHT22;50657;48.830;2.282;2023-02-22T03:32:08;21.80;44.80
47354;DHT22;50657;48.830;2.282;2023-02-22T03:34:41;21.90;44.80
47354;DHT22;50657;48.830;2.282;2023-02-22T03:37:16;21.80;44.80
47354;DHT22;50657;48.830;2.282;2023-02-22T03:39:46;21.80;44.70
47354;DHT22;50657;48.830;2.282;2023-02-22T03:42:18;21.90;45.20
47354;DHT22;50657;48.830;2.282;2023-02-22T03:44:48;21.80;44.70
47354;DHT22;50657;48.830;2.282;2023-02-22T03:47:20;21.80;44.70
47354;DHT22;50657;48.830;2.282;2023-02-22T03:49:54;21.80;44.60
47354;DHT22;50657;48.830;2.282;2023-02-22T03:52:24;21.80;44.60
47354;DHT22;50657;48.830;2.282;2023-02-22T03:54:52;21.80;44.70
47354;DHT22;50657;48.830;2.282;2023-02-22T03:57:25;21.80;44.60
47354;DHT22;50657;48.830;2.282;2023-02-22T04:00:04;21.80;44.50
47354;DHT22;50657;48.830;2.282;2023-02-22T04:02:38;21.80;44.60
47354;DHT22;50657;48.830;2.282;2023-02-22T04:05:09;21.80;44.70
47354;DHT22;50657;48.830;2.282;2023-02-22T04:07:36;21.80;44.70
47354;DHT22;50657;48.830;2.282;2023-02-22T04:10:04;21.80;44.70
47354;DHT22;50657;48.830;2.282;2023-02-22T04:12:33;21.80;44.70
47354;DHT22;50657;48.830;2.282;2023-02-22T04:15:04;21.70;44.70
47354;DHT22;50657;48.830;2.282;2023-02-22T04:17:31;21.80;44.80
47354;DHT22;50657;48.830;2.282;2023-02-22T04:19:59;21.80;44.90
47354;DHT22;50657;48.830;2.282;2023-02-22T04:22:34;21.80;44.90
47354;DHT22;50657;48.830;2.282;2023-02-22T04:25:03;21.80;44.90
47354;DHT22;50657;48.830;2.282;2023-02-22T04:27:30;21.80;44.90
47354;DHT22;50657;48.830;2.282;2023-02-22T04:29:57;21.70;44.80
47354;DHT22;50657;48.830;2.282;2023-02-22T04:32:25;21.70;44.80
47354;DHT22;50657;48.830;2.282;2023-02-22T04:34:52;21.80;45.50
47354;DHT22;50657;48.830;2.282;2023-02-22T04:37:19;21.70;44.80
47354;DHT22;50657;48.830;2.282;2023-02-22T04:39:48;21.70;44.80
47354;DHT22;50657;48.830;2.282;2023-02-22T04:42:16;21.70;44.80
47354;DHT22;50657;48.830;2.282;2023-02-22T04:44:44;21.80;44.90
47354;DHT22;50657;48.830;2.282;2023-02-22T04:47:11;21.70;44.80
47354;DHT22;50657;48.830;2.282;2023-02-22T04:49:39;21.70;44.80
47354;DHT22;50657;48.830;2.282;2023-02-22T04:52:06;21.70;44.80
47354;DHT22;50657;48.830;2.282;2023-02-22T04:54:37;21.70;44.80
47354;DHT22;50657;48.830;2.282;2023-02-22T04:57:06;21.70;44.90
47354;DHT22;50657;48.830;2.282;2023-02-22T04:59:36;21.70;44.80
47354;DHT22;50657;48.830;2.282;2023-02-22T05:02:03;21.70;44.80
47354;DHT22;50657;48.830;2.282;2023-02-22T05:04:30;21.70;44.80
47354;DHT22;50657;48.830;2.282;2023-02-22T05:06:57;21.70;44.80
47354;DHT22;50657;48.830;2.282;2023-02-22T05:09:24;21.70;44.90
47354;DHT22;50657;48.830;2.282;2023-02-22T05:11:51;21.70;44.70
47354;DHT22;50657;48.830;2.282;2023-02-22T05:14:19;21.70;44.80
47354;DHT22;50657;48.830;2.282;2023-02-22T05:16:52;21.70;44.80
47354;DHT22;50657;48.830;2.282;2023-02-22T05:19:19;21.70;44.80
47354;DHT22;50657;48.830;2.282;2023-02-22T05:21:47;21.70;44.70
47354;DHT22;50657;48.830;2.282;2023-02-22T05:24:14;21.70;44.70
47354;DHT22;50657;48.830;2.282;2023-02-22T05:26:42;21.70;44.70
47354;DHT22;50657;48.830;2.282;2023-02-22T05:29:10;21.70;44.60
47354;DHT22;50657;48.830;2.282;2023-02-22T05:31:38;21.70;44.70
47354;DHT22;50657;48.830;2.282;2023-02-22T05:34:06;21.70;44.70
47354;DHT22;50657;48.830;2.282;2023-02-22T05:36:33;21.70;44.80
47354;DHT22;50657;48.830;2.282;2023-02-22T05:39:00;21.70;44.80
47354;DHT22;50657;48.830;2.282;2023-02-22T05:41:28;21.70;44.80
47354;DHT22;50657;48.830;2.282;2023-02-22T05:43:55;21.70;44.80
47354;DHT22;50657;48.830;2.282;2023-02-22T05:46:22;21.70;44.80
47354;DHT22;50657;48.830;2.282;2023-02-22T05:48:51;21.70;44.80
47354;DHT22;50657;48.830;2.282;2023-02-22T05:51:18;21.70;44.80
47354;DHT22;50657;48.830;2.282;2023-02-22T05:53:45;21.70;44.80
47354;DHT22;50657;48.830;2.282;2023-02-22T05:56:12;21.70;44.80
47354;DHT22;50657;48.830;2.282;2023-02-22T05:58:41;21.70;44.80
47354;DHT22;50657;48.830;2.282;2023-02-22T06:01:09;21.70;44.90
47354;DHT22;50657;48.830;2.282;2023-02-22T06:03:37;21.70;44.90
47354;DHT22;50657;48.830;2.282;2023-02-22T06:06:06;21.70;44.90
47354;DHT22;50657;48.830;2.282;2023-02-22T06:08:33;21.70;44.90
47354;DHT22;50657;48.830;2.282;2023-02-22T06:11:00;21.60;44.90
47354;DHT22;50657;48.830;2.282;2023-02-22T06:13:30;21.60;44.90
47354;DHT22;50657;48.830;2.282;2023-02-22T06:15:57;21.60;45.00
47354;DHT22;50657;48.830;2.282;2023-02-22T06:18:25;21.60;44.90
47354;DHT22;50657;48.830;2.282;2023-02-22T06:20:55;21.60;45.00
47354;DHT22;50657;48.830;2.282;2023-02-22T06:23:23;21.60;45.00
47354;DHT22;50657;48.830;2.282;2023-02-22T06:25:50;21.60;45.00
47354;DHT22;50657;48.830;2.282;2023-02-22T06:28:18;21.60;45.00
47354;DHT22;50657;48.830;2.282;2023-02-22T06:30:45;21.60;45.00
47354;DHT22;50657;48.830;2.282;2023-02-22T06:33:12;21.60;45.00
47354;DHT22;50657;48.830;2.282;2023-02-22T06:35:39;21.60;45.10
47354;DHT22;50657;48.830;2.282;2023-02-22T06:38:06;21.50;43.70
47354;DHT22;50657;48.830;2.282;2023-02-22T06:40:34;21.30;43.00
47354;DHT22;50657;48.830;2.282;2023-02-22T06:43:02;20.90;42.80
47354;DHT22;50657;48.830;2.282;2023-02-22T06:45:29;20.60;42.90
47354;DHT22;50657;48.830;2.282;2023-02-22T06:47:57;20.20;43.10
47354;DHT22;50657;48.830;2.282;2023-02-22T06:50:25;19.80;43.60
47354;DHT22;50657;48.830;2.282;2023-02-22T06:52:53;19.40;44.30
47354;DHT22;50657;48.830;2.282;2023-02-22T06:55:23;19.10;45.00
47354;DHT22;50657;48.830;2.282;2023-02-22T06:57:51;18.80;45.50
47354;DHT22;50657;48.830;2.282;2023-02-22T07:00:21;18.60;46.10
47354;DHT22;50657;48.830;2.282;2023-02-22T07:02:50;18.40;46.50
47354;DHT22;50657;48.830;2.282;2023-02-22T07:05:19;18.20;47.00
47354;DHT22;50657;48.830;2.282;2023-02-22T07:07:47;18.00;47.50
47354;DHT22;50657;48.830;2.282;2023-02-22T07:10:18;17.80;47.80
47354;DHT22;50657;48.830;2.282;2023-02-22T07:12:45;17.70;48.20
47354;DHT22;50657;48.830;2.282;2023-02-22T07:15:16;17.50;48.60
47354;DHT22;50657;48.830;2.282;2023-02-22T07:17:46;17.40;48.90
47354;DHT22;50657;48.830;2.282;2023-02-22T07:20:13;17.30;49.20
47354;DHT22;50657;48.830;2.282;2023-02-22T07:22:40;17.30;49.40
47354;DHT22;50657;48.830;2.282;2023-02-22T07:25:08;17.20;49.80
47354;DHT22;50657;48.830;2.282;2023-02-22T07:27:38;17.10;49.90
47354;DHT22;50657;48.830;2.282;2023-02-22T07:30:07;17.00;50.00
47354;DHT22;50657;48.830;2.282;2023-02-22T07:32:35;16.90;50.30
47354;DHT22;50657;48.830;2.282;2023-02-22T07:35:02;16.90;50.60
47354;DHT22;50657;48.830;2.282;2023-02-22T07:37:30;16.80;50.90
47354;DHT22;50657;48.830;2.282;2023-02-22T07:39:58;16.70;51.20
47354;DHT22;50657;48.830;2.282;2023-02-22T07:42:25;16.60;51.30
47354;DHT22;50657;48.830;2.282;2023-02-22T07:44:52;16.60;51.50
47354;DHT22;50657;48.830;2.282;2023-02-22T07:47:19;16.50;51.70
47354;DHT22;50657;48.830;2.282;2023-02-22T07:49:47;16.50;52.00
47354;DHT22;50657;48.830;2.282;2023-02-22T07:52:14;16.50;52.20
47354;DHT22;50657;48.830;2.282;2023-02-22T07:54:45;16.40;52.50
47354;DHT22;50657;48.830;2.282;2023-02-22T07:57:12;16.30;52.60
47354;DHT22;50657;48.830;2.282;2023-02-22T07:59:39;16.30;52.80
47354;DHT22;50657;48.830;2.282;2023-02-22T08:02:11;16.30;53.00
47354;DHT22;50657;48.830;2.282;2023-02-22T08:04:40;16.20;53.20
47354;DHT22;50657;48.830;2.282;2023-02-22T08:07:09;16.20;53.40
47354;DHT22;50657;48.830;2.282;2023-02-22T08:09:36;16.10;53.60
47354;DHT22;50657;48.830;2.282;2023-02-22T08:12:03;16.10;53.70
47354;DHT22;50657;48.830;2.282;2023-02-22T08:14:30;16.00;53.80
47354;DHT22;50657;48.830;2.282;2023-02-22T08:16:57;16.00;54.00
47354;DHT22;50657;48.830;2.282;2023-02-22T08:19:24;16.00;54.20
47354;DHT22;50657;48.830;2.282;2023-02-22T08:21:51;16.00;54.30
47354;DHT22;50657;48.830;2.282;2023-02-22T08:24:20;16.00;54.50
47354;DHT22;50657;48.830;2.282;2023-02-22T08:26:47;15.90;54.60
47354;DHT22;50657;48.830;2.282;2023-02-22T08:29:14;15.90;54.70
47354;DHT22;50657;48.830;2.282;2023-02-22T08:31:41;15.90;54.90
47354;DHT22;50657;48.830;2.282;2023-02-22T08:34:08;15.90;55.00
47354;DHT22;50657;48.830;2.282;2023-02-22T08:36:36;15.90;54.90
47354;DHT22;50657;48.830;2.282;2023-02-22T08:39:07;16.00;55.10
47354;DHT22;50657;48.830;2.282;2023-02-22T08:41:35;16.00;55.10
47354;DHT22;50657;48.830;2.282;2023-02-22T08:44:02;16.00;55.10
47354;DHT22;50657;48.830;2.282;2023-02-22T08:46:29;16.00;55.20
47354;DHT22;50657;48.830;2.282;2023-02-22T08:48:57;15.90;55.20
47354;DHT22;50657;48.830;2.282;2023-02-22T08:51:24;15.90;55.20
47354;DHT22;50657;48.830;2.282;2023-02-22T08:53:52;15.90;55.40
47354;DHT22;50657;48.830;2.282;2023-02-22T08:56:20;16.00;56.10
47354;DHT22;50657;48.830;2.282;2023-02-22T08:58:49;16.20;56.40
47354;DHT22;50657;48.830;2.282;2023-02-22T09:01:16;16.50;56.30
47354;DHT22;50657;48.830;2.282;2023-02-22T09:03:47;16.80;55.90
47354;DHT22;50657;48.830;2.282;2023-02-22T09:06:15;17.10;55.50
47354;DHT22;50657;48.830;2.282;2023-02-22T09:08:42;17.30;55.10
47354;DHT22;50657;48.830;2.282;2023-02-22T09:11:09;17.60;54.70
47354;DHT22;50657;48.830;2.282;2023-02-22T09:13:36;17.80;54.30
47354;DHT22;50657;48.830;2.282;2023-02-22T09:16:05;18.00;53.90
47354;DHT22;50657;48.830;2.282;2023-02-22T09:18:32;18.20;53.60
47354;DHT22;50657;48.830;2.282;2023-02-22T09:20:59;18.40;53.30
47354;DHT22;50657;48.830;2.282;2023-02-22T09:23:26;18.50;53.00
47354;DHT22;50657;48.830;2.282;2023-02-22T09:25:55;18.70;52.50
47354;DHT22;50657;48.830;2.282;2023-02-22T09:28:22;18.90;52.20
47354;DHT22;50657;48.830;2.282;2023-02-22T09:30:49;19.10;51.80
47354;DHT22;50657;48.830;2.282;2023-02-22T09:33:19;19.20;51.30
47354;DHT22;50657;48.830;2.282;2023-02-22T09:35:48;19.40;50.90
47354;DHT22;50657;48.830;2.282;2023-02-22T09:38:17;19.60;50.50
47354;DHT22;50657;48.830;2.282;2023-02-22T09:40:46;19.70;50.10
47354;DHT22;50657;48.830;2.282;2023-02-22T09:43:23;19.90;49.80
47354;DHT22;50657;48.830;2.282;2023-02-22T09:46:08;20.10;49.40
47354;DHT22;50657;48.830;2.282;2023-02-22T09:51:32;20.30;48.70
47354;DHT22;50657;48.830;2.282;2023-02-22T09:54:04;20.50;48.40
47354;DHT22;50657;48.830;2.282;2023-02-22T09:56:32;20.60;48.10
47354;DHT22;50657;48.830;2.282;2023-02-22T09:59:02;20.80;47.80
47354;DHT22;50657;48.830;2.282;2023-02-22T10:01:33;20.90;47.50
47354;DHT22;50657;48.830;2.282;2023-02-22T10:04:10;21.00;47.20
47354;DHT22;50657;48.830;2.282;2023-02-22T10:06:55;21.10;46.90
47354;DHT22;50657;48.830;2.282;2023-02-22T10:09:27;21.30;46.70
47354;DHT22;50657;48.830;2.282;2023-02-22T10:11:57;21.30;46.50
47354;DHT22;50657;48.830;2.282;2023-02-22T10:14:37;21.40;46.20
47354;DHT22;50657;48.830;2.282;2023-02-22T10:17:17;21.50;46.00
47354;DHT22;50657;48.830;2.282;2023-02-22T10:19:57;21.60;45.80
47354;DHT22;50657;48.830;2.282;2023-02-22T10:22:40;21.70;45.60
47354;DHT22;50657;48.830;2.282;2023-02-22T10:25:13;21.70;45.40
47354;DHT22;50657;48.830;2.282;2023-02-22T10:27:46;21.80;45.20
47354;DHT22;50657;48.830;2.282;2023-02-22T10:30:19;21.90;45.00
47354;DHT22;50657;48.830;2.282;2023-02-22T10:32:51;22.00;44.90
47354;DHT22;50657;48.830;2.282;2023-02-22T10:35:24;22.00;44.80
47354;DHT22;50657;48.830;2.282;2023-02-22T10:37:53;22.10;44.80
47354;DHT22;50657;48.830;2.282;2023-02-22T10:40:24;22.20;45.10
47354;DHT22;50657;48.830;2.282;2023-02-22T10:42:59;22.20;45.10
47354;DHT22;50657;48.830;2.282;2023-02-22T10:45:29;22.30;45.10
47354;DHT22;50657;48.830;2.282;2023-02-22T10:47:59;22.30;44.90
47354;DHT22;50657;48.830;2.282;2023-02-22T10:50:31;22.30;44.80
47354;DHT22;50657;48.830;2.282;2023-02-22T10:52:59;22.30;44.70
47354;DHT22;50657;48.830;2.282;2023-02-22T10:55:26;22.30;44.60
47354;DHT22;50657;48.830;2.282;2023-02-22T10:57:59;22.30;44.60
47354;DHT22;50657;48.830;2.282;2023-02-22T11:00:30;22.30;44.60
47354;DHT22;50657;48.830;2.282;2023-02-22T11:02:59;22.20;44.40
47354;DHT22;50657;48.830;2.282;2023-02-22T11:05:34;22.20;44.40
47354;DHT22;50657;48.830;2.282;2023-02-22T11:08:21;22.20;44.40
47354;DHT22;50657;48.830;2.282;2023-02-22T11:10:50;22.20;44.30
47354;DHT22;50657;48.830;2.282;2023-02-22T11:13:24;22.10;44.40
47354;DHT22;50657;48.830;2.282;2023-02-22T11:15:54;22.10;44.30
47354;DHT22;50657;48.830;2.282;2023-02-22T11:18:24;22.00;44.30
47354;DHT22;50657;48.830;2.282;2023-02-22T11:21:05;22.00;44.30
47354;DHT22;50657;48.830;2.282;2023-02-22T11:23:36;22.00;44.30
47354;DHT22;50657;48.830;2.282;2023-02-22T11:26:06;22.00;44.40
47354;DHT22;50657;48.830;2.282;2023-02-22T11:28:35;21.90;44.30
47354;DHT22;50657;48.830;2.282;2023-02-22T11:31:12;21.90;44.30
47354;DHT22;50657;48.830;2.282;2023-02-22T11:33:48;21.90;44.30
47354;DHT22;50657;48.830;2.282;2023-02-22T11:36:31;21.90;44.40
47354;DHT22;50657;48.830;2.282;2023-02-22T11:39:04;21.90;45.00
47354;DHT22;50657;48.830;2.282;2023-02-22T11:41:36;21.80;45.00
47354;DHT22;50657;48.830;2.282;2023-02-22T11:44:20;21.80;44.40
47354;DHT22;50657;48.830;2.282;2023-02-22T11:46:48;21.80;44.40
47354;DHT22;50657;48.830;2.282;2023-02-22T11:49:16;21.70;44.50
47354;DHT22;50657;48.830;2.282;2023-02-22T11:51:55;21.70;44.50
47354;DHT22;50657;48.830;2.282;2023-02-22T11:57:42;21.70;44.50
47354;DHT22;50657;48.830;2.282;2023-02-22T12:00:17;21.60;44.60
47354;DHT22;50657;48.830;2.282;2023-02-22T12:03:13;21.60;44.60
47354;DHT22;50657;48.830;2.282;2023-02-22T12:05:59;21.60;44.60
47354;DHT22;50657;48.830;2.282;2023-02-22T12:08:43;21.60;44.60
47354;DHT22;50657;48.830;2.282;2023-02-22T12:11:19;21.50;44.50
47354;DHT22;50657;48.830;2.282;2023-02-22T12:14:00;21.50;44.60
47354;DHT22;50657;48.830;2.282;2023-02-22T12:16:42;21.50;44.60
47354;DHT22;50657;48.830;2.282;2023-02-22T12:19:19;21.50;45.20
47354;DHT22;50657;48.830;2.282;2023-02-22T12:21:53;21.50;44.60
47354;DHT22;50657;48.830;2.282;2023-02-22T12:24:26;21.50;44.60
47354;DHT22;50657;48.830;2.282;2023-02-22T12:26:59;21.50;44.60
47354;DHT22;50657;48.830;2.282;2023-02-22T12:29:32;21.40;44.60
47354;DHT22;50657;48.830;2.282;2023-02-22T12:32:04;21.40;44.60
47354;DHT22;50657;48.830;2.282;2023-02-22T12:34:36;21.40;44.50
47354;DHT22;50657;48.830;2.282;2023-02-22T12:37:14;21.40;44.60
47354;DHT22;50657;48.830;2.282;2023-02-22T12:39:48;21.40;44.40
47354;DHT22;50657;48.830;2.282;2023-02-22T12:42:18;21.40;44.50
47354;DHT22;50657;48.830;2.282;2023-02-22T12:44:53;21.30;44.60
47354;DHT22;50657;48.830;2.282;2023-02-22T12:47:28;21.30;44.50
47354;DHT22;50657;48.830;2.282;2023-02-22T12:50:01;21.30;44.50
47354;DHT22;50657;48.830;2.282;2023-02-22T12:52:41;21.30;44.60
47354;DHT22;50657;48.830;2.282;2023-02-22T12:55:15;21.30;44.40
47354;DHT22;50657;48.830;2.282;2023-02-22T12:57:48;21.30;44.40
47354;DHT22;50657;48.830;2.282;2023-02-22T13:00:20;21.30;44.30
47354;DHT22;50657;48.830;2.282;2023-02-22T13:02:57;21.30;44.40
47354;DHT22;50657;48.830;2.282;2023-02-22T13:05:29;21.30;44.30
47354;DHT22;50657;48.830;2.282;2023-02-22T13:08:10;21.30;44.40
47354;DHT22;50657;48.830;2.282;2023-02-22T13:11:00;21.30;44.40
47354;DHT22;50657;48.830;2.282;2023-02-22T13:13:35;21.30;44.40
47354;DHT22;50657;48.830;2.282;2023-02-22T13:16:12;21.30;44.40
47354;DHT22;50657;48.830;2.282;2023-02-22T13:18:43;21.30;44.40
47354;DHT22;50657;48.830;2.282;2023-02-22T13:21:17;21.20;44.40
47354;DHT22;50657;48.830;2.282;2023-02-22T13:23:52;21.20;44.60
47354;DHT22;50657;48.830;2.282;2023-02-22T13:26:25;21.20;44.50
47354;DHT22;50657;48.830;2.282;2023-02-22T13:28:58;21.20;44.40
47354;DHT22;50657;48.830;2.282;2023-02-22T13:34:26;21.20;44.40
47354;DHT22;50657;48.830;2.282;2023-02-22T13:37:07;21.20;44.60
47354;DHT22;50657;48.830;2.282;2023-02-22T13:39:44;21.20;44.50
47354;DHT22;50657;48.830;2.282;2023-02-22T13:42:29;21.10;44.50
47354;DHT22;50657;48.830;2.282;2023-02-22T13:48:50;21.20;44.50
47354;DHT22;50657;48.830;2.282;2023-02-22T13:51:39;21.20;44.50
47354;DHT22;50657;48.830;2.282;2023-02-22T13:54:15;21.20;44.70
47354;DHT22;50657;48.830;2.282;2023-02-22T13:56:44;21.10;44.70
47354;DHT22;50657;48.830;2.282;2023-02-22T13:59:26;21.10;44.60
47354;DHT22;50657;48.830;2.282;2023-02-22T14:01:53;21.10;44.60
47354;DHT22;50657;48.830;2.282;2023-02-22T14:04:36;21.10;44.60
47354;DHT22;50657;48.830;2.282;2023-02-22T14:10:45;21.10;44.50
47354;DHT22;50657;48.830;2.282;2023-02-22T14:13:13;21.10;44.60
47354;DHT22;50657;48.830;2.282;2023-02-22T14:16:16;21.10;45.30
47354;DHT22;50657;48.830;2.282;2023-02-22T14:18:46;21.10;44.60
47354;DHT22;50657;48.830;2.282;2023-02-22T14:21:15;21.10;44.70
47354;DHT22;50657;48.830;2.282;2023-02-22T14:23:45;21.10;44.70
47354;DHT22;50657;48.830;2.282;2023-02-22T14:26:15;21.00;44.70
47354;DHT22;50657;48.830;2.282;2023-02-22T14:28:52;21.10;44.80
47354;DHT22;50657;48.830;2.282;2023-02-22T14:31:24;21.10;44.80
47354;DHT22;50657;48.830;2.282;2023-02-22T14:33:58;21.10;44.90
47354;DHT22;50657;48.830;2.282;2023-02-22T14:36:32;21.00;44.80
47354;DHT22;50657;48.830;2.282;2023-02-22T14:39:26;21.00;45.00
47354;DHT22;50657;48.830;2.282;2023-02-22T14:41:59;21.10;44.90
47354;DHT22;50657;48.830;2.282;2023-02-22T14:44:32;21.00;44.90
47354;DHT22;50657;48.830;2.282;2023-02-22T14:47:04;21.00;45.00
47354;DHT22;50657;48.830;2.282;2023-02-22T14:49:35;21.00;45.00
47354;DHT22;50657;48.830;2.282;2023-02-22T14:52:06;21.00;45.00
47354;DHT22;50657;48.830;2.282;2023-02-22T14:54:51;21.00;45.00
47354;DHT22;50657;48.830;2.282;2023-02-22T14:57:22;21.00;45.10
47354;DHT22;50657;48.830;2.282;2023-02-22T15:00:11;21.00;45.10
47354;DHT22;50657;48.830;2.282;2023-02-22T15:02:48;21.00;45.10
47354;DHT22;50657;48.830;2.282;2023-02-22T15:05:18;21.00;45.10
47354;DHT22;50657;48.830;2.282;2023-02-22T15:07:53;21.00;45.10
47354;DHT22;50657;48.830;2.282;2023-02-22T15:10:24;21.00;45.10
47354;DHT22;50657;48.830;2.282;2023-02-22T15:12:55;21.00;45.20
47354;DHT22;50657;48.830;2.282;2023-02-22T15:15:39;21.00;45.20
47354;DHT22;50657;48.830;2.282;2023-02-22T15:18:18;21.00;45.20
47354;DHT22;50657;48.830;2.282;2023-02-22T15:20:46;21.00;45.20
47354;DHT22;50657;48.830;2.282;2023-02-22T15:23:21;21.00;45.20
47354;DHT22;50657;48.830;2.282;2023-02-22T15:25:49;21.00;45.30
47354;DHT22;50657;48.830;2.282;2023-02-22T15:28:17;21.00;45.20
47354;DHT22;50657;48.830;2.282;2023-02-22T15:30:44;21.00;45.30
47354;DHT22;50657;48.830;2.282;2023-02-22T15:33:15;21.00;45.20
47354;DHT22;50657;48.830;2.282;2023-02-22T15:35:53;21.00;45.30
47354;DHT22;50657;48.830;2.282;2023-02-22T15:38:25;21.00;45.20
47354;DHT22;50657;48.830;2.282;2023-02-22T15:41:00;21.00;45.30
47354;DHT22;50657;48.830;2.282;2023-02-22T15:43:28;21.00;45.30
47354;DHT22;50657;48.830;2.282;2023-02-22T15:45:57;21.00;45.30
47354;DHT22;50657;48.830;2.282;2023-02-22T15:48:27;21.00;45.40
47354;DHT22;50657;48.830;2.282;2023-02-22T15:51:02;21.00;45.30
47354;DHT22;50657;48.830;2.282;2023-02-22T15:53:37;21.00;45.30
47354;DHT22;50657;48.830;2.282;2023-02-22T15:56:09;21.00;46.00
47354;DHT22;50657;48.830;2.282;2023-02-22T15:58:38;21.00;46.50
47354;DHT22;50657;48.830;2.282;2023-02-22T16:01:08;21.00;46.90
47354;DHT22;50657;48.830;2.282;2023-02-22T16:03:40;21.10;47.10
47354;DHT22;50657;48.830;2.282;2023-02-22T16:06:13;21.20;47.30
47354;DHT22;50657;48.830;2.282;2023-02-22T16:08:43;21.20;47.50
47354;DHT22;50657;48.830;2.282;2023-02-22T16:11:20;21.30;47.40
47354;DHT22;50657;48.830;2.282;2023-02-22T16:13:58;21.40;47.40
47354;DHT22;50657;48.830;2.282;2023-02-22T16:16:30;21.40;47.40
47354;DHT22;50657;48.830;2.282;2023-02-22T16:19:31;21.50;47.50
47354;DHT22;50657;48.830;2.282;2023-02-22T16:22:00;21.60;47.20